Wetterdaten: Woche 27.01.14 - 02.02.14 (KW5)
Datum Zeit Temp. A. Feuchte A. Luftdruck Regen Wind Richtung Taupunkt Windchill Windben
27.01.2014 00:00 -5,6 C 86 % 1009,4 hPa 0,0 l/m 3,1 km/h N -7,6 C -5,6 C 9,7 km/h
27.01.2014 01:00 -5,5 C 86 % 1008,4 hPa 0,0 l/m 3,3 km/h N -7,5 C -5,5 C 9,3 km/h
27.01.2014 02:00 -5,5 C 86 % 1007,6 hPa 0,0 l/m 2,6 km/h N -7,5 C -5,5 C 8,9 km/h
27.01.2014 03:00 -5,7 C 86 % 1006,2 hPa 0,0 l/m 2,2 km/h N -7,6 C -5,7 C 9,3 km/h
27.01.2014 04:00 -5,4 C 86 % 1005,5 hPa 0,0 l/m 1,2 km/h N -7,4 C -5,4 C 7,6 km/h
27.01.2014 05:00 -5,3 C 86 % 1004,7 hPa 0,0 l/m 1,9 km/h N -7,2 C -5,3 C 7,3 km/h
27.01.2014 06:00 -5,2 C 86 % 1004,0 hPa 0,0 l/m 2,5 km/h N -7,2 C -5,2 C 9,6 km/h
27.01.2014 07:00 -5,3 C 86 % 1004,1 hPa 0,0 l/m 5,1 km/h N -7,2 C -5,4 C 19,3 km/h
27.01.2014 08:00 -5,3 C 86 % 1004,3 hPa 0,0 l/m 5,5 km/h N -7,3 C -5,3 C 20,1 km/h
27.01.2014 09:00 -4,9 C 86 % 1004,5 hPa 0,0 l/m 3,8 km/h N -6,9 C -4,9 C 14,5 km/h
27.01.2014 10:00 -4,5 C 85 % 1004,8 hPa 0,0 l/m 4,5 km/h N -6,7 C -4,5 C 14,1 km/h
27.01.2014 11:00 -4,2 C 87 % 1004,7 hPa 0,0 l/m 4,3 km/h N -6,0 C -4,2 C 12,1 km/h
27.01.2014 12:00 -4,1 C 86 % 1004,6 hPa 0,0 l/m 4,4 km/h N -6,1 C -4,1 C 12,9 km/h
27.01.2014 13:00 -4,1 C 86 % 1004,5 hPa 0,0 l/m 4,5 km/h N -6,1 C -4,1 C 13,7 km/h
27.01.2014 14:00 -3,9 C 86 % 1004,3 hPa 0,0 l/m 3,6 km/h N -5,9 C -3,9 C 9,7 km/h
27.01.2014 15:00 -3,6 C 85 % 1004,4 hPa 0,0 l/m 2,0 km/h N -5,8 C -3,6 C 8,0 km/h
27.01.2014 16:00 -3,8 C 87 % 1004,8 hPa 0,0 l/m 2,4 km/h N -5,7 C -3,8 C 8,9 km/h
27.01.2014 17:00 -3,8 C 85 % 1005,2 hPa 0,0 l/m 1,1 km/h N -5,9 C -3,8 C 5,6 km/h
27.01.2014 18:00 -3,7 C 86 % 1005,5 hPa 0,0 l/m 0,2 km/h N -5,8 C -3,7 C 2,4 km/h
27.01.2014 19:00 -3,7 C 86 % 1005,9 hPa 0,0 l/m 0,2 km/h N -5,7 C -3,7 C 2,4 km/h
27.01.2014 20:00 -3,7 C 86 % 1006,0 hPa 0,0 l/m 0,1 km/h N -5,7 C -3,7 C 2,8 km/h
27.01.2014 21:00 -3,8 C 86 % 1006,1 hPa 0,0 l/m 0,1 km/h N -5,7 C -3,8 C 1,2 km/h
27.01.2014 22:00 -3,8 C 86 % 1006,1 hPa 0,0 l/m 0,0 km/h N -5,8 C -3,8 C 0,0 km/h
27.01.2014 23:00 -3,8 C 86 % 1006,0 hPa 0,0 l/m 0,0 km/h N -5,8 C -3,8 C 0,0 km/h
28.01.2014 00:00 -3,8 C 86 % 1005,9 hPa 0,0 l/m 0,2 km/h N -5,7 C -3,8 C 1,2 km/h
28.01.2014 01:00 -3,7 C 86 % 1005,8 hPa 0,0 l/m 0,0 km/h N -5,6 C -3,7 C 0,0 km/h
28.01.2014 02:00 -3,7 C 86 % 1005,6 hPa 0,0 l/m 0,0 km/h N -5,7 C -3,7 C 0,0 km/h
28.01.2014 03:00 -3,6 C 86 % 1005,3 hPa 0,0 l/m 0,6 km/h N -5,5 C -3,6 C 2,8 km/h
28.01.2014 04:00 -3,3 C 86 % 1005,4 hPa 0,0 l/m 0,8 km/h N -5,2 C -3,3 C 4,0 km/h
28.01.2014 05:00 -3,0 C 86 % 1005,4 hPa 0,0 l/m 0,5 km/h N -5,0 C -3,0 C 4,0 km/h
28.01.2014 06:00 -2,9 C 86 % 1005,2 hPa 0,0 l/m 0,0 km/h N -4,9 C -2,9 C 1,2 km/h
28.01.2014 07:00 -2,7 C 86 % 1004,8 hPa 0,0 l/m 0,1 km/h N -4,7 C -2,7 C 1,2 km/h
28.01.2014 08:00 -2,4 C 86 % 1005,0 hPa 0,0 l/m 1,8 km/h N -4,5 C -2,4 C 6,8 km/h
28.01.2014 09:00 -2,0 C 85 % 1005,0 hPa 0,0 l/m 2,7 km/h N -4,3 C -2,0 C 8,4 km/h
28.01.2014 10:00 -1,7 C 84 % 1004,9 hPa 0,0 l/m 3,5 km/h N -4,1 C -1,7 C 11,3 km/h
28.01.2014 11:00 -1,2 C 82 % 1004,3 hPa 0,0 l/m 5,2 km/h N -3,8 C -1,4 C 14,1 km/h
28.01.2014 12:00 -0,6 C 81 % 1003,9 hPa 0,0 l/m 5,2 km/h N -3,4 C -0,6 C 14,5 km/h
28.01.2014 13:00 -0,3 C 81 % 1003,5 hPa 0,0 l/m 4,2 km/h N -3,2 C -0,3 C 11,3 km/h
28.01.2014 14:00 0,1 C 80 % 1003,4 hPa 0,0 l/m 3,6 km/h N -3,0 C 0,1 C 10,9 km/h
28.01.2014 15:00 -0,3 C 80 % 1003,3 hPa 0,3 l/m 3,4 km/h N -3,3 C -0,3 C 10,9 km/h
28.01.2014 16:00 -0,3 C 81 % 1003,4 hPa 0,0 l/m 3,0 km/h N -3,2 C -0,3 C 9,7 km/h
28.01.2014 17:00 -0,4 C 81 % 1003,7 hPa 0,0 l/m 0,6 km/h N -3,2 C -0,4 C 4,8 km/h
28.01.2014 18:00 -0,4 C 82 % 1003,7 hPa 0,0 l/m 0,5 km/h N -3,1 C -0,4 C 4,4 km/h
28.01.2014 19:00 -0,6 C 83 % 1003,8 hPa 0,0 l/m 0,3 km/h N -3,2 C -0,6 C 2,8 km/h
28.01.2014 20:00 -1,0 C 83 % 1004,1 hPa 0,0 l/m 0,0 km/h N -3,4 C -1,0 C 0,0 km/h
28.01.2014 21:00 -1,2 C 84 % 1004,1 hPa 0,0 l/m 0,0 km/h N -3,6 C -1,2 C 0,0 km/h
28.01.2014 22:00 -1,5 C 85 % 1004,3 hPa 0,0 l/m 0,1 km/h N -3,8 C -1,5 C 2,4 km/h
28.01.2014 23:00 -1,9 C 85 % 1004,4 hPa 0,0 l/m 0,0 km/h N -4,0 C -1,9 C 1,6 km/h
29.01.2014 00:00 -2,2 C 85 % 1004,6 hPa 0,0 l/m 0,0 km/h N -4,4 C -2,2 C 0,8 km/h
29.01.2014 01:00 -2,3 C 85 % 1004,7 hPa 0,0 l/m 0,0 km/h N -4,5 C -2,3 C 0,8 km/h
29.01.2014 02:00 -2,5 C 85 % 1004,8 hPa 0,0 l/m 0,0 km/h N -4,6 C -2,5 C 0,4 km/h
29.01.2014 03:00 -2,5 C 85 % 1004,9 hPa 0,0 l/m 0,0 km/h N -4,6 C -2,5 C 0,8 km/h
29.01.2014 04:00 -2,4 C 85 % 1005,1 hPa 0,0 l/m 0,0 km/h N -4,6 C -2,4 C 0,4 km/h
29.01.2014 05:00 -2,4 C 86 % 1005,4 hPa 0,0 l/m 0,0 km/h N -4,4 C -2,4 C 0,4 km/h
29.01.2014 06:00 -2,2 C 86 % 1005,7 hPa 0,0 l/m 0,1 km/h N -4,2 C -2,2 C 2,0 km/h
29.01.2014 07:00 -2,1 C 86 % 1006,1 hPa 0,0 l/m 1,8 km/h N -4,1 C -2,1 C 6,0 km/h
29.01.2014 08:00 -2,1 C 86 % 1006,6 hPa 0,0 l/m 2,7 km/h N -4,1 C -2,1 C 8,9 km/h
29.01.2014 09:00 -2,0 C 86 % 1007,0 hPa 0,0 l/m 1,2 km/h N -4,0 C -2,0 C 8,4 km/h
29.01.2014 10:00 -1,5 C 86 % 1007,4 hPa 0,0 l/m 2,4 km/h N -3,5 C -1,5 C 8,4 km/h
29.01.2014 11:00 -1,0 C 86 % 1007,4 hPa 0,0 l/m 2,8 km/h N -3,1 C -1,0 C 11,3 km/h
29.01.2014 12:00 -0,8 C 84 % 1007,5 hPa 0,3 l/m 5,9 km/h N -3,1 C -1,1 C 17,7 km/h
29.01.2014 13:00 -0,4 C 83 % 1007,4 hPa 0,0 l/m 4,9 km/h N -3,0 C -0,4 C 16,9 km/h
29.01.2014 14:00 0,0 C 80 % 1007,5 hPa 0,0 l/m 4,5 km/h N -3,0 C 0,0 C 17,7 km/h
29.01.2014 15:00 0,1 C 79 % 1007,8 hPa 0,0 l/m 4,3 km/h N -3,1 C 0,1 C 17,7 km/h
29.01.2014 16:00 -0,9 C 81 % 1008,5 hPa 0,0 l/m 5,0 km/h N -3,8 C -1,0 C 18,1 km/h
29.01.2014 17:00 -1,7 C 83 % 1009,2 hPa 0,0 l/m 5,9 km/h N -4,2 C -1,7 C 19,3 km/h
29.01.2014 18:00 -2,3 C 84 % 1009,4 hPa 0,0 l/m 5,6 km/h N -4,6 C -2,6 C 18,9 km/h
29.01.2014 19:00 -2,6 C 84 % 1009,9 hPa 0,0 l/m 5,2 km/h N -5,0 C -2,8 C 17,7 km/h
29.01.2014 20:00 -2,7 C 84 % 1010,4 hPa 0,0 l/m 4,9 km/h N -5,0 C -2,7 C 17,7 km/h
29.01.2014 21:00 -2,5 C 83 % 1011,0 hPa 0,0 l/m 4,9 km/h N -4,9 C -2,5 C 19,3 km/h
29.01.2014 22:00 -2,3 C 81 % 1011,2 hPa 0,0 l/m 8,9 km/h N -5,1 C -4,9 C 23,3 km/h
29.01.2014 23:00 -2,1 C 81 % 1011,6 hPa 0,0 l/m 9,9 km/h N -5,0 C -5,7 C 24,5 km/h
30.01.2014 00:00 -2,1 C 81 % 1012,0 hPa 0,0 l/m 8,6 km/h N -5,0 C -4,9 C 21,3 km/h
30.01.2014 01:00 -2,4 C 81 % 1012,4 hPa 0,0 l/m 5,1 km/h N -5,2 C -2,4 C 20,1 km/h
30.01.2014 02:00 -2,5 C 81 % 1012,6 hPa 0,0 l/m 6,1 km/h N -5,3 C -3,1 C 20,5 km/h
30.01.2014 03:00 -2,5 C 82 % 1012,7 hPa 0,0 l/m 5,8 km/h N -5,3 C -2,8 C 18,5 km/h
30.01.2014 04:00 -2,6 C 85 % 1013,1 hPa 0,0 l/m 5,3 km/h N -4,8 C -2,6 C 19,3 km/h
30.01.2014 05:00 -2,8 C 83 % 1013,8 hPa 0,0 l/m 6,1 km/h N -5,3 C -3,0 C 19,7 km/h
30.01.2014 06:00 -3,0 C 83 % 1014,1 hPa 0,0 l/m 5,3 km/h N -5,5 C -3,2 C 19,7 km/h
30.01.2014 07:00 -3,3 C 84 % 1014,7 hPa 0,0 l/m 6,4 km/h N -5,6 C -4,1 C 18,5 km/h
30.01.2014 08:00 -3,2 C 84 % 1015,5 hPa 0,0 l/m 8,8 km/h N -5,5 C -6,1 C 24,1 km/h
30.01.2014 09:00 -2,5 C 84 % 1015,9 hPa 0,0 l/m 7,7 km/h N -4,8 C -4,0 C 21,7 km/h
30.01.2014 10:00 -2,2 C 84 % 1016,6 hPa 0,0 l/m 7,8 km/h N -4,5 C -3,6 C 23,7 km/h
30.01.2014 11:00 -1,8 C 84 % 1017,0 hPa 0,0 l/m 7,0 km/h N -4,2 C -2,8 C 20,5 km/h
30.01.2014 12:00 -1,6 C 84 % 1017,1 hPa 0,0 l/m 6,3 km/h N -3,9 C -2,7 C 18,1 km/h
30.01.2014 13:00 -1,5 C 85 % 1017,2 hPa 0,0 l/m 5,8 km/h N -3,7 C -1,6 C 20,1 km/h
30.01.2014 14:00 -1,8 C 85 % 1017,1 hPa 0,0 l/m 4,1 km/h N -3,9 C -1,8 C 18,5 km/h
30.01.2014 15:00 -1,8 C 86 % 1017,2 hPa 0,0 l/m 3,4 km/h N -3,8 C -1,8 C 14,9 km/h
30.01.2014 16:00 -1,6 C 86 % 1017,1 hPa 0,0 l/m 2,6 km/h N -3,7 C -1,6 C 11,3 km/h
30.01.2014 17:00 -1,2 C 86 % 1017,0 hPa 0,0 l/m 5,4 km/h N -3,3 C -1,4 C 20,9 km/h
30.01.2014 18:00 -0,9 C 86 % 1017,4 hPa 0,0 l/m 13,8 km/h N -3,0 C -7,1 C 29,8 km/h
30.01.2014 19:00 -0,7 C 85 % 1017,5 hPa 0,0 l/m 9,2 km/h N -2,9 C -3,8 C 20,5 km/h
30.01.2014 20:00 -0,7 C 85 % 1017,4 hPa 0,0 l/m 5,6 km/h N -3,0 C -1,9 C 15,7 km/h
30.01.2014 21:00 -0,6 C 84 % 1017,5 hPa 0,0 l/m 7,9 km/h N -2,9 C -2,1 C 19,3 km/h
30.01.2014 22:00 -0,4 C 84 % 1017,8 hPa 0,0 l/m 5,9 km/h N -2,8 C -1,3 C 16,1 km/h
30.01.2014 23:00 -0,6 C 85 % 1018,1 hPa 0,0 l/m 2,9 km/h N -2,8 C -0,6 C 11,7 km/h
31.01.2014 00:00 -0,6 C 86 % 1018,0 hPa 0,0 l/m 2,5 km/h N -2,6 C -0,6 C 13,3 km/h
31.01.2014 01:00 -0,7 C 88 % 1017,8 hPa 0,0 l/m 4,7 km/h N -2,5 C -1,2 C 17,3 km/h
31.01.2014 02:00 -0,4 C 85 % 1017,7 hPa 0,0 l/m 13,9 km/h N -2,6 C -6,8 C 27,8 km/h
31.01.2014 03:00 -0,6 C 86 % 1017,5 hPa 0,0 l/m 15,0 km/h N -2,6 C -7,6 C 28,6 km/h
31.01.2014 04:00 -0,7 C 86 % 1017,3 hPa 0,0 l/m 11,9 km/h N -2,8 C -5,6 C 24,9 km/h
31.01.2014 05:00 -0,8 C 86 % 1017,6 hPa 0,0 l/m 7,1 km/h N -2,9 C -2,1 C 21,3 km/h
31.01.2014 06:00 -1,3 C 86 % 1017,8 hPa 0,0 l/m 5,0 km/h N -3,4 C -1,3 C 17,3 km/h
31.01.2014 07:00 -1,6 C 86 % 1018,0 hPa 0,0 l/m 6,3 km/h N -3,6 C -2,2 C 21,7 km/h
31.01.2014 08:00 -1,6 C 85 % 1019,0 hPa 0,0 l/m 6,7 km/h N -3,7 C -2,2 C 19,3 km/h
31.01.2014 09:00 -1,6 C 85 % 1019,3 hPa 0,0 l/m 3,4 km/h N -3,9 C -1,6 C 12,9 km/h
31.01.2014 10:00 -1,8 C 84 % 1019,5 hPa 0,0 l/m 4,9 km/h N -4,1 C -2,0 C 17,7 km/h
31.01.2014 11:00 -1,7 C 83 % 1019,8 hPa 0,0 l/m 10,6 km/h N -4,2 C -5,7 C 25,4 km/h
31.01.2014 12:00 -1,5 C 83 % 1019,3 hPa 0,0 l/m 10,3 km/h N -4,0 C -5,3 C 26,1 km/h
31.01.2014 13:00 -1,6 C 83 % 1019,4 hPa 0,0 l/m 7,3 km/h N -4,1 C -2,5 C 18,9 km/h
31.01.2014 14:00 -1,6 C 83 % 1019,1 hPa 0,0 l/m 11,9 km/h N -4,0 C -6,7 C 24,9 km/h
31.01.2014 15:00 -1,3 C 83 % 1019,8 hPa 0,0 l/m 8,6 km/h N -3,7 C -3,6 C 22,1 km/h
31.01.2014 16:00 -1,4 C 84 % 1020,3 hPa 0,0 l/m 9,4 km/h N -3,8 C -4,3 C 21,7 km/h
31.01.2014 17:00 -1,5 C 84 % 1020,6 hPa 0,0 l/m 10,3 km/h N -3,9 C -5,2 C 24,1 km/h
31.01.2014 18:00 -1,6 C 83 % 1020,8 hPa 0,0 l/m 9,8 km/h N -4,1 C -5,0 C 24,5 km/h
31.01.2014 19:00 -1,7 C 84 % 1020,5 hPa 0,0 l/m 11,4 km/h N -4,1 C -6,5 C 27,8 km/h
31.01.2014 20:00 -1,6 C 83 % 1020,5 hPa 0,0 l/m 10,3 km/h N -4,1 C -5,2 C 24,1 km/h
31.01.2014 21:00 -1,5 C 82 % 1020,5 hPa 0,0 l/m 10,5 km/h N -4,2 C -5,6 C 26,1 km/h
31.01.2014 22:00 -1,6 C 82 % 1020,6 hPa 0,0 l/m 8,8 km/h N -4,3 C -4,2 C 26,5 km/h
31.01.2014 23:00 -1,7 C 82 % 1020,3 hPa 0,0 l/m 10,8 km/h N -4,3 C -5,8 C 26,9 km/h
01.02.2014 00:00 -1,8 C 82 % 1019,1 hPa 0,0 l/m 16,2 km/h N -4,4 C -9,8 C 35,0 km/h
01.02.2014 01:00 -1,9 C 81 % 1018,8 hPa 0,0 l/m 16,9 km/h N -4,7 C -10,4 C 36,2 km/h
01.02.2014 02:00 -2,1 C 81 % 1019,4 hPa 0,0 l/m 9,9 km/h N -5,0 C -5,7 C 25,7 km/h
01.02.2014 03:00 -2,3 C 82 % 1019,3 hPa 0,0 l/m 7,9 km/h N -5,0 C -3,9 C 23,3 km/h
01.02.2014 04:00 -2,4 C 82 % 1019,0 hPa 0,0 l/m 6,8 km/h N -5,0 C -3,4 C 20,9 km/h
01.02.2014 05:00 -2,7 C 84 % 1019,1 hPa 0,0 l/m 8,8 km/h N -5,1 C -5,5 C 21,7 km/h
01.02.2014 06:00 -3,2 C 84 % 1019,1 hPa 0,0 l/m 10,7 km/h N -5,5 C -7,6 C 28,2 km/h
01.02.2014 07:00 -3,4 C 85 % 1019,0 hPa 0,0 l/m 9,2 km/h N -5,5 C -6,4 C 25,8 km/h
01.02.2014 08:00 -3,5 C 85 % 1019,0 hPa 0,0 l/m 10,6 km/h N -5,7 C -7,9 C 27,0 km/h
01.02.2014 09:00 -3,3 C 84 % 1019,4 hPa 0,0 l/m 7,9 km/h N -5,7 C -5,0 C 21,3 km/h
01.02.2014 10:00 -3,3 C 82 % 1019,6 hPa 0,0 l/m 11,2 km/h N -5,9 C -8,1 C 28,6 km/h
01.02.2014 11:00 -3,5 C 82 % 1019,3 hPa 0,0 l/m 12,0 km/h N -6,1 C -9,0 C 28,2 km/h
01.02.2014 12:00 -3,2 C 82 % 1018,7 hPa 0,0 l/m 12,4 km/h N -5,9 C -9,0 C 27,8 km/h
01.02.2014 13:00 -3,0 C 82 % 1018,2 hPa 0,0 l/m 8,1 km/h N -5,6 C -4,9 C 23,7 km/h
01.02.2014 14:00 -2,9 C 82 % 1017,9 hPa 0,0 l/m 10,5 km/h N -5,6 C -7,1 C 29,0 km/h
01.02.2014 15:00 -2,7 C 82 % 1017,8 hPa 0,0 l/m 10,7 km/h N -5,4 C -7,0 C 27,8 km/h
01.02.2014 16:00 -2,5 C 82 % 1017,5 hPa 0,0 l/m 9,3 km/h N -5,1 C -5,5 C 29,0 km/h
01.02.2014 17:00 -2,4 C 83 % 1017,6 hPa 0,0 l/m 11,5 km/h N -4,9 C -7,3 C 27,4 km/h
01.02.2014 18:00 -2,4 C 83 % 1017,8 hPa 0,0 l/m 11,6 km/h N -4,9 C -7,4 C 25,7 km/h
01.02.2014 19:00 -2,3 C 83 % 1017,8 hPa 0,0 l/m 11,1 km/h N -4,8 C -6,9 C 26,1 km/h
01.02.2014 20:00 -2,3 C 83 % 1017,9 hPa 0,0 l/m 9,0 km/h N -4,8 C -5,0 C 25,4 km/h
01.02.2014 21:00 -2,3 C 84 % 1017,7 hPa 0,0 l/m 5,6 km/h N -4,6 C -2,3 C 20,5 km/h
01.02.2014 22:00 -2,3 C 87 % 1017,4 hPa 0,0 l/m 4,5 km/h N -4,1 C -2,3 C 20,1 km/h
01.02.2014 23:00 -2,2 C 86 % 1017,2 hPa 0,0 l/m 5,2 km/h N -4,2 C -2,1 C 21,3 km/h
02.02.2014 00:00 -2,1 C 86 % 1016,8 hPa 0,0 l/m 6,4 km/h N -4,1 C -2,7 C 20,1 km/h
02.02.2014 01:00 -2,1 C 86 % 1016,3 hPa 0,0 l/m 5,2 km/h N -4,1 C -2,1 C 20,5 km/h
02.02.2014 02:00 -2,0 C 86 % 1016,1 hPa 0,0 l/m 8,2 km/h N -4,0 C -4,2 C 23,3 km/h
02.02.2014 03:00 -1,7 C 86 % 1015,8 hPa 0,0 l/m 10,2 km/h N -3,7 C -5,5 C 27,8 km/h
02.02.2014 04:00 -1,5 C 86 % 1015,4 hPa 0,0 l/m 10,0 km/h N -3,6 C -5,2 C 24,9 km/h
02.02.2014 05:00 -1,4 C 86 % 1015,7 hPa 0,0 l/m 10,5 km/h N -3,4 C -5,5 C 24,5 km/h
02.02.2014 06:00 -1,5 C 85 % 1016,1 hPa 0,0 l/m 10,2 km/h N -3,7 C -5,3 C 25,7 km/h
02.02.2014 07:00 -1,6 C 86 % 1016,5 hPa 0,0 l/m 5,4 km/h N -3,6 C -1,7 C 19,3 km/h
02.02.2014 08:00 -1,5 C 86 % 1016,6 hPa 0,0 l/m 8,3 km/h N -3,5 C -3,3 C 21,3 km/h
02.02.2014 09:00 -1,3 C 86 % 1016,9 hPa 0,0 l/m 13,1 km/h N -3,3 C -7,3 C 29,0 km/h
02.02.2014 10:00 -1,2 C 86 % 1017,4 hPa 0,0 l/m 12,8 km/h N -3,2 C -6,9 C 28,2 km/h
02.02.2014 11:00 -1,0 C 85 % 1017,3 hPa 0,0 l/m 7,0 km/h N -3,2 C -2,1 C 19,7 km/h
02.02.2014 12:00 -0,8 C 86 % 1017,8 hPa 0,0 l/m 7,1 km/h N -2,9 C -1,6 C 20,1 km/h
02.02.2014 13:00 -0,6 C 86 % 1017,9 hPa 0,0 l/m 7,5 km/h N -2,7 C -1,9 C 20,1 km/h
02.02.2014 14:00 -0,4 C 86 % 1018,3 hPa 0,0 l/m 7,5 km/h N -2,5 C -1,8 C 19,3 km/h
02.02.2014 15:00 -0,3 C 86 % 1019,1 hPa 0,0 l/m 5,9 km/h N -2,3 C -0,3 C 17,3 km/h
02.02.2014 16:00 -0,3 C 86 % 1020,0 hPa 0,0 l/m 4,4 km/h N -2,4 C -0,3 C 11,3 km/h
02.02.2014 17:00 -0,4 C 86 % 1020,7 hPa 0,0 l/m 2,3 km/h N -2,5 C -0,4 C 8,1 km/h
02.02.2014 18:00 -0,5 C 85 % 1021,2 hPa 0,0 l/m 1,6 km/h N -2,7 C -0,5 C 8,9 km/h
02.02.2014 19:00 -0,6 C 85 % 1021,5 hPa 0,0 l/m 2,5 km/h N -2,8 C -0,6 C 9,3 km/h
02.02.2014 20:00 -0,5 C 84 % 1021,7 hPa 0,0 l/m 1,0 km/h N -2,9 C -0,5 C 7,2 km/h
02.02.2014 21:00 -0,4 C 84 % 1022,1 hPa 0,0 l/m 1,9 km/h N -2,8 C -0,4 C 6,4 km/h
02.02.2014 22:00 -0,3 C 84 % 1022,2 hPa 0,0 l/m 2,0 km/h N -2,7 C -0,3 C 7,6 km/h
02.02.2014 23:00 -0,3 C 84 % 1022,1 hPa 0,0 l/m 0,8 km/h N -2,7 C -0,3 C 6,0 km/h
Min-Datum _ 27.01.14 29.01.14 28.01.14 - 27.01.14 - 27.01.14 01.02.14 27.01.14
_ Min-Zeit 03:30 15:30 15:00 - 18:15 - 03:00 01:30 18:30
Minimum _ -5,8 C 78 % 1003,2 hPa - 0,0 km/h - -7,7 C -11,1 C 0,0 km/h
Max-Datum _ 29.01.14 27.01.14 02.02.14 28.01.14 31.01.14 - 31.01.14 29.01.14 01.02.14
_ Max-Zeit 15:15 11:00 23:45 15:30 03:15 - 01:00 15:15 00:45
Maximum _ 0,3 C 92 % 1022,3 hPa 0,3 l/m 18,0 km/h
N
- -1,8 C 0,3 C 40,2 km/h
N
Durchschnitt _ -2,1 C 84 % 1012,8 hPa #0,5 l/m 5,5 km/h N -4,4 C -3,5 C 15,9 km/h